createdAt,value
2023-04-20T06:21:50.466Z,71.1
2023-04-20T06:27:24.759Z,68.4
2023-04-20T06:33:01.031Z,72
2023-04-20T06:38:38.457Z,70.6
2023-04-20T06:44:14.844Z,70.9
2023-04-20T06:49:51.048Z,71.4
2023-04-20T06:55:26.514Z,71.6
2023-04-20T07:01:02.784Z,71.4
2023-04-20T07:06:38.076Z,69.7
2023-04-20T07:12:13.630Z,69.1
2023-04-20T07:17:50.513Z,68.3
2023-04-20T07:23:26.781Z,68
2023-04-20T07:29:03.399Z,68
2023-04-20T07:34:39.765Z,68.3
2023-04-20T07:40:17.380Z,67.8
2023-04-20T07:45:53.407Z,68.9
2023-04-20T07:51:30.373Z,69.3
2023-04-20T07:57:06.304Z,68.3
2023-04-20T08:02:43.446Z,69.1
2023-04-20T08:08:20.891Z,69.4
2023-04-20T08:13:58.614Z,68
2023-04-20T08:20:07.052Z,68
2023-04-20T08:25:41.691Z,67.9
2023-04-20T08:31:17.106Z,65.2
2023-04-20T08:36:53.523Z,64.8
2023-04-20T08:42:30.809Z,64.6
2023-04-20T08:48:07.181Z,63
2023-04-20T08:53:43.337Z,58.4
2023-04-20T08:59:22.574Z,60.2
2023-04-20T09:04:58.965Z,63
2023-04-20T09:10:35.681Z,61.9
2023-04-20T09:16:11.910Z,60.4
2023-04-20T09:21:47.748Z,62.1
2023-04-20T09:27:24.060Z,61
2023-04-20T09:32:59.579Z,59.9
2023-04-20T09:38:35.400Z,59.4
2023-04-20T09:44:11.679Z,59.8
2023-04-20T09:49:47.341Z,58.8
2023-04-20T09:55:23.830Z,59.5
2023-04-20T10:00:59.336Z,58.6
2023-04-20T10:06:36.480Z,58.6
2023-04-20T10:12:12.373Z,58.1
2023-04-20T10:17:48.712Z,58
2023-04-20T10:23:26.625Z,55.1
2023-04-20T10:29:02.443Z,54.9
2023-04-20T10:34:38.318Z,54.3
2023-04-20T10:40:14.930Z,55
2023-04-20T10:45:50.469Z,54.5
2023-04-20T10:51:26.825Z,53
2023-04-20T10:57:03.747Z,53.8
2023-04-20T11:02:40.884Z,51
2023-04-20T11:08:17.832Z,53.5
2023-04-20T11:13:54.489Z,49.6
2023-04-20T11:19:30.468Z,52.2
2023-04-20T11:25:06.396Z,53.3
2023-04-20T11:30:42.426Z,49.3
2023-04-20T11:36:17.826Z,49
2023-04-20T11:41:54.879Z,49.9
2023-04-20T11:47:31.247Z,52.6
2023-04-20T11:53:07.682Z,49.6
2023-04-20T11:58:44.726Z,47.8
2023-04-20T12:04:22.426Z,50.4
2023-04-20T12:10:00.833Z,48.3
2023-04-20T12:15:37.017Z,49.2
2023-04-20T12:21:13.563Z,49.9
2023-04-20T12:26:49.399Z,46.5
2023-04-20T12:32:25.651Z,45.5
2023-04-20T12:38:03.207Z,45
2023-04-20T12:43:40.510Z,45.3
2023-04-20T12:49:16.535Z,45.2
2023-04-20T12:54:54.708Z,44.6
2023-04-20T13:00:31.437Z,45
2023-04-20T13:06:07.588Z,43.1
2023-04-20T13:11:43.219Z,46.2
2023-04-20T13:17:18.628Z,46.4
2023-04-20T13:22:58.845Z,45.5
2023-04-20T13:28:33.941Z,45.9
2023-04-20T13:34:09.463Z,44.3
2023-04-20T13:39:45.544Z,45.6
2023-04-20T13:45:21.305Z,31.2
2023-04-20T13:50:58.222Z,33.9
2023-04-20T13:56:34.752Z,41.5
2023-04-20T14:02:10.818Z,40
2023-04-20T14:07:46.423Z,41.5
2023-04-20T14:13:23.288Z,41.1
2023-04-20T14:18:59.555Z,41.4
2023-04-20T14:24:34.797Z,34.7
2023-04-20T14:30:10.933Z,36.4
2023-04-20T14:35:47.595Z,35.2
2023-04-20T14:41:23.660Z,34.3
2023-04-20T14:47:00.117Z,38.4
2023-04-20T14:52:37.086Z,38
2023-04-20T14:58:16.711Z,31.4
2023-04-20T15:03:53.243Z,24.1
2023-04-20T15:09:31.744Z,28.5
2023-04-20T15:15:08.374Z,32.1
2023-04-20T15:21:05.848Z,26.8
2023-04-20T15:26:39.758Z,32
2023-04-20T15:32:15.609Z,34.5
2023-04-20T15:37:52.459Z,34.2
2023-04-20T15:43:29.260Z,38.4
2023-04-20T15:49:05.520Z,40.6
2023-04-20T15:54:42.650Z,41.2
2023-04-20T16:00:19.345Z,41.6
2023-04-20T16:05:54.733Z,40.3
2023-04-20T16:11:32.332Z,25.8
2023-04-20T16:17:09.412Z,24.9
2023-04-20T16:22:45.814Z,32.7
2023-04-20T16:28:21.931Z,35.5
2023-04-20T16:33:57.582Z,34.5
2023-04-20T16:39:33.127Z,31.4
2023-04-20T16:45:09.750Z,26
2023-04-20T16:50:45.829Z,28.1
2023-04-20T16:56:22.298Z,33.5
2023-04-20T17:01:57.189Z,39
2023-04-20T17:07:34.361Z,43.6
2023-04-20T17:13:09.640Z,45.4
2023-04-20T17:19:07.043Z,44.1
2023-04-20T17:24:39.951Z,46.3
2023-04-20T17:30:16.019Z,48.8
2023-04-20T17:35:52.218Z,48.7
2023-04-20T17:41:27.957Z,50.6
2023-04-20T17:47:03.727Z,51
2023-04-20T17:52:39.159Z,54.6
2023-04-20T17:58:15.277Z,56.2
2023-04-20T18:03:51.350Z,57.2
2023-04-20T18:09:28.392Z,57.2
2023-04-20T18:15:04.612Z,57.1
2023-04-20T18:21:06.877Z,57.9
2023-04-20T18:26:41.248Z,58.7
2023-04-20T18:32:16.059Z,57.7
2023-04-20T18:37:51.861Z,59.4
2023-04-20T18:43:27.519Z,60.5
2023-04-20T18:49:04.622Z,60.7
2023-04-20T18:54:40.535Z,61.6
2023-04-20T19:00:15.860Z,62.4
2023-04-20T19:05:51.940Z,63
2023-04-20T19:11:28.821Z,65.1
2023-04-20T19:17:05.850Z,66.3
2023-04-20T19:22:41.766Z,66.7
2023-04-20T19:28:17.717Z,66.5
2023-04-20T19:33:57.061Z,68.8
2023-04-20T19:39:35.174Z,69.4
2023-04-20T19:45:11.264Z,69.5
2023-04-20T19:50:48.178Z,65.8
2023-04-20T19:56:23.909Z,63.9
2023-04-20T20:01:59.571Z,63.4
2023-04-20T20:07:37.276Z,63.2
2023-04-20T20:13:13.505Z,63.3
2023-04-20T20:19:10.898Z,63.4
2023-04-20T20:24:46.498Z,63.5
2023-04-20T20:30:21.724Z,63.8
2023-04-20T20:35:56.690Z,64.2
2023-04-20T20:41:32.576Z,64.4
2023-04-20T20:47:10.169Z,64.7
2023-04-20T20:52:45.579Z,64.6
2023-04-20T20:58:21.439Z,64.5
2023-04-20T21:03:58.236Z,64.9
2023-04-20T21:09:36.346Z,65.1
